Slocum Pancake on mission GO-CART S.GEORGIA Piloting

  • Public vehicle
  • Serial Number unit_404
  • Operated by on the GO-CART project

Dived and failed to call in while exhibiting a fault, probably water ingress to teh connector.

  • Deployed: 2017/11/15 15:10:00 UTC (1305 days ago) by Stephanie Henson
  • Recovered: 2018/02/13 13:15:00 UTC (1215 days ago) by Hugh Venables
  • Time at Sea: 2 months
  • Profiles Performed: 2747

Near Real-Time Data

 
oxygen
potential_temperature
salinity
Temperature crossection
 
battery 24h
depth 24h

Communication Log

# Updated Depth Speed Plots
1300143 2018-02-13 13:06:16 UTC (1215 days ago)
1300160 2018-02-13 13:04:31 UTC (1215 days ago)
1300139 2018-02-13 13:03:03 UTC (1215 days ago)
1300137 2018-02-13 12:59:59 UTC (1215 days ago)
1300136 2018-02-13 12:56:52 UTC (1215 days ago)
1300133 2018-02-13 12:53:48 UTC (1215 days ago)
1300129 2018-02-13 12:50:33 UTC (1215 days ago)
1300125 2018-02-13 12:47:11 UTC (1215 days ago)
1300123 2018-02-13 12:44:07 UTC (1215 days ago)
1300121 2018-02-13 12:41:03 UTC (1215 days ago)
1300119 2018-02-13 12:34:17 UTC (1215 days ago)
1300118 2018-02-13 12:32:33 UTC (1215 days ago)
1300117 2018-02-13 12:31:31 UTC (1215 days ago)
1300115 2018-02-13 12:30:31 UTC (1215 days ago)
1300114 2018-02-13 12:27:11 UTC (1215 days ago)
1300127 2018-02-13 12:26:28 UTC (1215 days ago)
1300110 2018-02-13 12:24:02 UTC (1215 days ago)
1300109 2018-02-13 12:22:58 UTC (1215 days ago)
1300108 2018-02-13 12:22:43 UTC (1215 days ago)
1300097 2018-02-13 12:06:04 UTC (1215 days ago)